sensor_id;sensor_type;location;lat;lon;timestamp;temperature;humidity
4896;DHT22;2463;49.948;8.472;2022-10-16T00:00:54;16.50;99.90
4896;DHT22;2463;49.948;8.472;2022-10-16T00:03:21;16.60;99.90
4896;DHT22;2463;49.948;8.472;2022-10-16T00:05:59;16.60;99.90
4896;DHT22;2463;49.948;8.472;2022-10-16T00:08:27;16.50;99.90
4896;DHT22;2463;49.948;8.472;2022-10-16T00:11:03;16.50;99.90
4896;DHT22;2463;49.948;8.472;2022-10-16T00:13:31;16.50;99.90
4896;DHT22;2463;49.948;8.472;2022-10-16T00:15:59;16.50;99.90
4896;DHT22;2463;49.948;8.472;2022-10-16T00:18:27;16.50;99.90
4896;DHT22;2463;49.948;8.472;2022-10-16T00:20:54;16.50;99.90
4896;DHT22;2463;49.948;8.472;2022-10-16T00:23:25;16.50;99.90
4896;DHT22;2463;49.948;8.472;2022-10-16T00:26:02;16.50;99.90
4896;DHT22;2463;49.948;8.472;2022-10-16T00:28:29;16.50;99.90
4896;DHT22;2463;49.948;8.472;2022-10-16T00:30:57;16.50;99.90
4896;DHT22;2463;49.948;8.472;2022-10-16T00:33:24;16.60;99.90
4896;DHT22;2463;49.948;8.472;2022-10-16T00:35:50;16.50;99.90
4896;DHT22;2463;49.948;8.472;2022-10-16T00:38:17;16.50;99.90
4896;DHT22;2463;49.948;8.472;2022-10-16T00:40:44;16.60;99.90
4896;DHT22;2463;49.948;8.472;2022-10-16T00:46:02;16.60;99.90
4896;DHT22;2463;49.948;8.472;2022-10-16T00:48:29;16.60;99.90
4896;DHT22;2463;49.948;8.472;2022-10-16T00:50:57;16.50;99.90
4896;DHT22;2463;49.948;8.472;2022-10-16T00:53:25;16.50;99.90
4896;DHT22;2463;49.948;8.472;2022-10-16T00:55:52;16.60;99.90
4896;DHT22;2463;49.948;8.472;2022-10-16T00:58:20;16.40;99.90
4896;DHT22;2463;49.948;8.472;2022-10-16T01:00:47;16.50;99.90
4896;DHT22;2463;49.948;8.472;2022-10-16T01:03:43;16.60;99.90
4896;DHT22;2463;49.948;8.472;2022-10-16T01:09:02;16.60;99.90
4896;DHT22;2463;49.948;8.472;2022-10-16T01:14:53;16.60;99.90
4896;DHT22;2463;49.948;8.472;2022-10-16T01:17:32;16.70;99.90
4896;DHT22;2463;49.948;8.472;2022-10-16T01:20:08;16.60;99.90
4896;DHT22;2463;49.948;8.472;2022-10-16T01:22:49;16.60;99.90
4896;DHT22;2463;49.948;8.472;2022-10-16T01:28:18;16.60;99.90
4896;DHT22;2463;49.948;8.472;2022-10-16T01:30:50;16.60;99.90
4896;DHT22;2463;49.948;8.472;2022-10-16T01:33:24;16.70;99.90
4896;DHT22;2463;49.948;8.472;2022-10-16T01:35:56;16.70;99.90
4896;DHT22;2463;49.948;8.472;2022-10-16T01:38:34;16.70;99.90
4896;DHT22;2463;49.948;8.472;2022-10-16T01:41:10;16.70;99.90
4896;DHT22;2463;49.948;8.472;2022-10-16T01:43:43;16.70;99.90
4896;DHT22;2463;49.948;8.472;2022-10-16T01:46:10;16.70;99.90
4896;DHT22;2463;49.948;8.472;2022-10-16T01:48:39;16.70;99.90
4896;DHT22;2463;49.948;8.472;2022-10-16T01:51:11;16.70;99.90
4896;DHT22;2463;49.948;8.472;2022-10-16T01:53:40;16.70;99.90
4896;DHT22;2463;49.948;8.472;2022-10-16T01:56:10;16.60;99.90
4896;DHT22;2463;49.948;8.472;2022-10-16T01:58:42;16.50;99.90
4896;DHT22;2463;49.948;8.472;2022-10-16T02:01:11;16.60;99.90
4896;DHT22;2463;49.948;8.472;2022-10-16T02:03:44;16.50;99.90
4896;DHT22;2463;49.948;8.472;2022-10-16T02:06:12;16.60;99.90
4896;DHT22;2463;49.948;8.472;2022-10-16T02:08:39;16.60;99.90
4896;DHT22;2463;49.948;8.472;2022-10-16T02:11:10;16.60;99.90
4896;DHT22;2463;49.948;8.472;2022-10-16T02:13:48;16.60;99.90
4896;DHT22;2463;49.948;8.472;2022-10-16T02:16:16;16.60;99.90
4896;DHT22;2463;49.948;8.472;2022-10-16T02:18:43;16.60;99.90
4896;DHT22;2463;49.948;8.472;2022-10-16T02:21:26;16.40;99.90
4896;DHT22;2463;49.948;8.472;2022-10-16T02:26:37;16.40;99.90
4896;DHT22;2463;49.948;8.472;2022-10-16T02:29:11;16.40;99.90
4896;DHT22;2463;49.948;8.472;2022-10-16T02:31:41;16.50;99.90
4896;DHT22;2463;49.948;8.472;2022-10-16T02:34:09;16.50;99.90
4896;DHT22;2463;49.948;8.472;2022-10-16T02:36:39;16.50;99.90
4896;DHT22;2463;49.948;8.472;2022-10-16T02:39:07;16.60;99.90
4896;DHT22;2463;49.948;8.472;2022-10-16T02:41:34;16.50;99.90
4896;DHT22;2463;49.948;8.472;2022-10-16T02:44:01;16.60;99.90
4896;DHT22;2463;49.948;8.472;2022-10-16T02:46:27;16.50;99.90
4896;DHT22;2463;49.948;8.472;2022-10-16T02:48:54;16.60;99.90
4896;DHT22;2463;49.948;8.472;2022-10-16T02:51:21;16.60;99.90
4896;DHT22;2463;49.948;8.472;2022-10-16T02:53:47;16.60;99.90
4896;DHT22;2463;49.948;8.472;2022-10-16T02:56:14;16.60;99.90
4896;DHT22;2463;49.948;8.472;2022-10-16T02:58:41;16.70;99.90
4896;DHT22;2463;49.948;8.472;2022-10-16T03:01:07;16.70;99.90
4896;DHT22;2463;49.948;8.472;2022-10-16T03:03:34;16.60;99.90
4896;DHT22;2463;49.948;8.472;2022-10-16T03:06:01;16.70;99.90
4896;DHT22;2463;49.948;8.472;2022-10-16T03:08:29;16.60;99.90
4896;DHT22;2463;49.948;8.472;2022-10-16T03:10:56;16.60;99.90
4896;DHT22;2463;49.948;8.472;2022-10-16T03:13:23;16.60;99.90
4896;DHT22;2463;49.948;8.472;2022-10-16T03:15:49;16.60;99.90
4896;DHT22;2463;49.948;8.472;2022-10-16T03:18:17;16.60;99.90
4896;DHT22;2463;49.948;8.472;2022-10-16T03:20:43;16.70;99.90
4896;DHT22;2463;49.948;8.472;2022-10-16T03:23:10;16.70;99.90
4896;DHT22;2463;49.948;8.472;2022-10-16T03:25:37;16.70;99.90
4896;DHT22;2463;49.948;8.472;2022-10-16T03:28:04;16.70;99.90
4896;DHT22;2463;49.948;8.472;2022-10-16T03:30:31;16.60;99.90
4896;DHT22;2463;49.948;8.472;2022-10-16T03:32:58;16.60;99.90
4896;DHT22;2463;49.948;8.472;2022-10-16T03:35:24;16.70;99.90
4896;DHT22;2463;49.948;8.472;2022-10-16T03:37:51;16.80;99.90
4896;DHT22;2463;49.948;8.472;2022-10-16T03:40:18;16.70;99.90
4896;DHT22;2463;49.948;8.472;2022-10-16T03:42:45;16.70;99.90
4896;DHT22;2463;49.948;8.472;2022-10-16T03:45:11;16.70;99.90
4896;DHT22;2463;49.948;8.472;2022-10-16T03:47:38;16.60;99.90
4896;DHT22;2463;49.948;8.472;2022-10-16T03:50:05;16.60;99.90
4896;DHT22;2463;49.948;8.472;2022-10-16T03:52:32;16.70;99.90
4896;DHT22;2463;49.948;8.472;2022-10-16T03:54:59;16.70;99.90
4896;DHT22;2463;49.948;8.472;2022-10-16T03:57:26;16.60;99.90
4896;DHT22;2463;49.948;8.472;2022-10-16T03:59:53;16.70;99.90
4896;DHT22;2463;49.948;8.472;2022-10-16T04:02:19;16.60;99.90
4896;DHT22;2463;49.948;8.472;2022-10-16T04:04:46;16.60;99.90
4896;DHT22;2463;49.948;8.472;2022-10-16T04:07:13;16.60;99.90
4896;DHT22;2463;49.948;8.472;2022-10-16T04:09:39;16.60;99.90
4896;DHT22;2463;49.948;8.472;2022-10-16T04:12:06;16.60;99.90
4896;DHT22;2463;49.948;8.472;2022-10-16T04:14:33;16.70;99.90
4896;DHT22;2463;49.948;8.472;2022-10-16T04:17:00;16.80;99.90
4896;DHT22;2463;49.948;8.472;2022-10-16T04:19:27;16.80;99.90
4896;DHT22;2463;49.948;8.472;2022-10-16T04:21:53;16.80;99.90
4896;DHT22;2463;49.948;8.472;2022-10-16T04:24:20;16.80;99.90
4896;DHT22;2463;49.948;8.472;2022-10-16T04:26:46;16.90;99.90
4896;DHT22;2463;49.948;8.472;2022-10-16T04:29:13;16.90;99.90
4896;DHT22;2463;49.948;8.472;2022-10-16T04:31:40;16.90;99.90
4896;DHT22;2463;49.948;8.472;2022-10-16T04:34:06;16.90;99.90
4896;DHT22;2463;49.948;8.472;2022-10-16T04:36:33;16.90;99.90
4896;DHT22;2463;49.948;8.472;2022-10-16T04:39:00;16.90;99.90
4896;DHT22;2463;49.948;8.472;2022-10-16T04:41:26;16.90;99.90
4896;DHT22;2463;49.948;8.472;2022-10-16T04:43:53;17.00;99.90
4896;DHT22;2463;49.948;8.472;2022-10-16T04:46:20;17.00;99.90
4896;DHT22;2463;49.948;8.472;2022-10-16T04:48:46;16.90;99.90
4896;DHT22;2463;49.948;8.472;2022-10-16T04:51:13;16.90;99.90
4896;DHT22;2463;49.948;8.472;2022-10-16T04:53:40;16.80;99.90
4896;DHT22;2463;49.948;8.472;2022-10-16T04:56:06;16.90;99.90
4896;DHT22;2463;49.948;8.472;2022-10-16T04:58:33;16.90;99.90
4896;DHT22;2463;49.948;8.472;2022-10-16T05:01:00;16.90;99.90
4896;DHT22;2463;49.948;8.472;2022-10-16T05:03:26;16.90;99.90
4896;DHT22;2463;49.948;8.472;2022-10-16T05:05:53;16.90;99.90
4896;DHT22;2463;49.948;8.472;2022-10-16T05:08:20;16.90;99.90
4896;DHT22;2463;49.948;8.472;2022-10-16T05:10:47;17.10;99.90
4896;DHT22;2463;49.948;8.472;2022-10-16T05:13:13;17.00;99.90
4896;DHT22;2463;49.948;8.472;2022-10-16T05:15:40;17.00;99.90
4896;DHT22;2463;49.948;8.472;2022-10-16T05:18:08;17.10;99.90
4896;DHT22;2463;49.948;8.472;2022-10-16T05:20:34;17.00;99.90
4896;DHT22;2463;49.948;8.472;2022-10-16T05:23:01;17.10;99.90
4896;DHT22;2463;49.948;8.472;2022-10-16T05:25:28;17.20;99.90
4896;DHT22;2463;49.948;8.472;2022-10-16T05:27:54;17.10;99.90
4896;DHT22;2463;49.948;8.472;2022-10-16T05:30:21;17.10;99.90
4896;DHT22;2463;49.948;8.472;2022-10-16T05:32:49;17.20;99.90
4896;DHT22;2463;49.948;8.472;2022-10-16T05:35:17;16.90;99.90
4896;DHT22;2463;49.948;8.472;2022-10-16T05:37:44;17.00;99.90
4896;DHT22;2463;49.948;8.472;2022-10-16T05:40:12;17.00;99.90
4896;DHT22;2463;49.948;8.472;2022-10-16T05:42:39;17.00;99.90
4896;DHT22;2463;49.948;8.472;2022-10-16T05:45:08;16.90;99.90
4896;DHT22;2463;49.948;8.472;2022-10-16T05:47:35;16.90;99.90
4896;DHT22;2463;49.948;8.472;2022-10-16T05:50:03;16.80;99.90
4896;DHT22;2463;49.948;8.472;2022-10-16T05:52:30;16.80;99.90
4896;DHT22;2463;49.948;8.472;2022-10-16T05:54:57;16.80;99.90
4896;DHT22;2463;49.948;8.472;2022-10-16T05:57:24;16.80;99.90
4896;DHT22;2463;49.948;8.472;2022-10-16T05:59:51;16.90;99.90
4896;DHT22;2463;49.948;8.472;2022-10-16T06:02:18;16.90;99.90
4896;DHT22;2463;49.948;8.472;2022-10-16T06:04:44;17.00;99.90
4896;DHT22;2463;49.948;8.472;2022-10-16T06:07:11;16.90;99.90
4896;DHT22;2463;49.948;8.472;2022-10-16T06:09:38;16.90;99.90
4896;DHT22;2463;49.948;8.472;2022-10-16T06:12:04;17.00;99.90
4896;DHT22;2463;49.948;8.472;2022-10-16T06:14:31;17.00;99.90
4896;DHT22;2463;49.948;8.472;2022-10-16T06:16:58;17.00;99.90
4896;DHT22;2463;49.948;8.472;2022-10-16T06:19:24;17.00;99.90
4896;DHT22;2463;49.948;8.472;2022-10-16T06:21:51;17.10;99.90
4896;DHT22;2463;49.948;8.472;2022-10-16T06:24:18;17.10;99.90
4896;DHT22;2463;49.948;8.472;2022-10-16T06:26:44;17.10;99.90
4896;DHT22;2463;49.948;8.472;2022-10-16T06:29:11;17.10;99.90
4896;DHT22;2463;49.948;8.472;2022-10-16T06:31:38;17.20;99.90
4896;DHT22;2463;49.948;8.472;2022-10-16T06:34:05;17.10;99.90
4896;DHT22;2463;49.948;8.472;2022-10-16T06:36:35;17.20;99.90
4896;DHT22;2463;49.948;8.472;2022-10-16T06:39:03;17.20;99.90
4896;DHT22;2463;49.948;8.472;2022-10-16T06:41:29;17.10;99.90
4896;DHT22;2463;49.948;8.472;2022-10-16T06:43:56;17.20;99.90
4896;DHT22;2463;49.948;8.472;2022-10-16T06:46:24;17.20;99.90
4896;DHT22;2463;49.948;8.472;2022-10-16T06:48:51;17.20;99.90
4896;DHT22;2463;49.948;8.472;2022-10-16T06:51:20;17.20;99.90
4896;DHT22;2463;49.948;8.472;2022-10-16T06:53:50;17.20;99.90
4896;DHT22;2463;49.948;8.472;2022-10-16T06:56:30;17.20;99.90
4896;DHT22;2463;49.948;8.472;2022-10-16T06:58:58;17.30;99.90
4896;DHT22;2463;49.948;8.472;2022-10-16T07:01:26;17.30;99.90
4896;DHT22;2463;49.948;8.472;2022-10-16T07:03:53;17.30;99.90
4896;DHT22;2463;49.948;8.472;2022-10-16T07:06:22;17.40;99.90
4896;DHT22;2463;49.948;8.472;2022-10-16T07:08:49;17.40;99.90
4896;DHT22;2463;49.948;8.472;2022-10-16T07:11:19;17.50;99.90
4896;DHT22;2463;49.948;8.472;2022-10-16T07:13:46;17.50;99.90
4896;DHT22;2463;49.948;8.472;2022-10-16T07:16:25;17.50;99.90
4896;DHT22;2463;49.948;8.472;2022-10-16T07:19:00;17.50;99.90
4896;DHT22;2463;49.948;8.472;2022-10-16T07:21:29;17.50;99.90
4896;DHT22;2463;49.948;8.472;2022-10-16T07:23:59;17.60;99.90
4896;DHT22;2463;49.948;8.472;2022-10-16T07:26:32;17.60;99.90
4896;DHT22;2463;49.948;8.472;2022-10-16T07:28:59;17.60;99.90
4896;DHT22;2463;49.948;8.472;2022-10-16T07:31:26;17.70;99.90
4896;DHT22;2463;49.948;8.472;2022-10-16T07:33:53;17.70;99.90
4896;DHT22;2463;49.948;8.472;2022-10-16T07:36:21;17.70;99.90
4896;DHT22;2463;49.948;8.472;2022-10-16T07:38:48;17.70;99.90
4896;DHT22;2463;49.948;8.472;2022-10-16T07:41:16;17.60;99.90
4896;DHT22;2463;49.948;8.472;2022-10-16T07:43:51;17.60;99.90
4896;DHT22;2463;49.948;8.472;2022-10-16T07:46:19;17.60;99.90
4896;DHT22;2463;49.948;8.472;2022-10-16T07:48:47;17.50;99.90
4896;DHT22;2463;49.948;8.472;2022-10-16T07:51:20;17.40;99.90
4896;DHT22;2463;49.948;8.472;2022-10-16T07:53:47;17.40;99.90
4896;DHT22;2463;49.948;8.472;2022-10-16T07:56:15;17.50;99.90
4896;DHT22;2463;49.948;8.472;2022-10-16T07:58:42;17.60;99.90
4896;DHT22;2463;49.948;8.472;2022-10-16T08:01:11;17.50;99.90
4896;DHT22;2463;49.948;8.472;2022-10-16T08:03:42;17.50;99.90
4896;DHT22;2463;49.948;8.472;2022-10-16T08:06:09;17.50;99.90
4896;DHT22;2463;49.948;8.472;2022-10-16T08:08:36;17.60;99.90
4896;DHT22;2463;49.948;8.472;2022-10-16T08:11:03;17.60;99.90
4896;DHT22;2463;49.948;8.472;2022-10-16T08:13:30;17.60;99.90
4896;DHT22;2463;49.948;8.472;2022-10-16T08:15:57;17.70;99.90
4896;DHT22;2463;49.948;8.472;2022-10-16T08:18:24;17.80;99.90
4896;DHT22;2463;49.948;8.472;2022-10-16T08:20:58;17.90;99.90
4896;DHT22;2463;49.948;8.472;2022-10-16T08:23:27;18.00;99.90
4896;DHT22;2463;49.948;8.472;2022-10-16T08:25:55;18.00;99.90
4896;DHT22;2463;49.948;8.472;2022-10-16T08:28:22;18.10;99.90
4896;DHT22;2463;49.948;8.472;2022-10-16T08:30:49;18.10;99.90
4896;DHT22;2463;49.948;8.472;2022-10-16T08:33:16;18.20;99.90
4896;DHT22;2463;49.948;8.472;2022-10-16T08:35:42;18.10;99.90
4896;DHT22;2463;49.948;8.472;2022-10-16T08:38:09;18.10;99.90
4896;DHT22;2463;49.948;8.472;2022-10-16T08:40:37;18.10;99.90
4896;DHT22;2463;49.948;8.472;2022-10-16T08:48:50;18.20;99.90
4896;DHT22;2463;49.948;8.472;2022-10-16T08:51:29;18.20;99.90
4896;DHT22;2463;49.948;8.472;2022-10-16T08:54:19;18.20;99.90
4896;DHT22;2463;49.948;8.472;2022-10-16T08:56:47;18.30;99.90
4896;DHT22;2463;49.948;8.472;2022-10-16T08:59:16;18.40;99.90
4896;DHT22;2463;49.948;8.472;2022-10-16T09:01:45;18.40;99.90
4896;DHT22;2463;49.948;8.472;2022-10-16T09:07:29;18.50;99.90
4896;DHT22;2463;49.948;8.472;2022-10-16T09:13:29;18.60;99.90
4896;DHT22;2463;49.948;8.472;2022-10-16T09:16:21;18.70;99.90
4896;DHT22;2463;49.948;8.472;2022-10-16T09:19:28;18.80;99.90
4896;DHT22;2463;49.948;8.472;2022-10-16T09:21:59;18.80;99.90
4896;DHT22;2463;49.948;8.472;2022-10-16T09:24:29;19.00;99.90
4896;DHT22;2463;49.948;8.472;2022-10-16T09:26:56;18.90;99.90
4896;DHT22;2463;49.948;8.472;2022-10-16T09:29:23;19.00;99.90
4896;DHT22;2463;49.948;8.472;2022-10-16T09:31:53;19.00;99.90
4896;DHT22;2463;49.948;8.472;2022-10-16T09:34:24;19.10;99.90
4896;DHT22;2463;49.948;8.472;2022-10-16T09:36:56;19.30;99.90
4896;DHT22;2463;49.948;8.472;2022-10-16T09:39:23;19.50;99.90
4896;DHT22;2463;49.948;8.472;2022-10-16T09:41:51;19.60;99.90
4896;DHT22;2463;49.948;8.472;2022-10-16T09:47:01;19.60;99.90
4896;DHT22;2463;49.948;8.472;2022-10-16T09:49:28;19.70;99.90
4896;DHT22;2463;49.948;8.472;2022-10-16T09:52:06;19.60;99.90
4896;DHT22;2463;49.948;8.472;2022-10-16T09:54:37;19.80;99.90
4896;DHT22;2463;49.948;8.472;2022-10-16T09:57:10;19.80;99.90
4896;DHT22;2463;49.948;8.472;2022-10-16T09:59:50;19.80;99.90
4896;DHT22;2463;49.948;8.472;2022-10-16T10:02:29;19.80;99.90
4896;DHT22;2463;49.948;8.472;2022-10-16T10:04:56;19.70;99.90
4896;DHT22;2463;49.948;8.472;2022-10-16T10:07:35;19.70;99.90
4896;DHT22;2463;49.948;8.472;2022-10-16T10:10:05;19.80;99.90
4896;DHT22;2463;49.948;8.472;2022-10-16T10:12:33;19.90;99.90
4896;DHT22;2463;49.948;8.472;2022-10-16T10:15:09;19.90;99.90
4896;DHT22;2463;49.948;8.472;2022-10-16T10:17:46;19.90;99.90
4896;DHT22;2463;49.948;8.472;2022-10-16T10:20:24;19.80;99.90
4896;DHT22;2463;49.948;8.472;2022-10-16T10:22:51;19.90;99.90
4896;DHT22;2463;49.948;8.472;2022-10-16T10:31:14;20.70;99.90
4896;DHT22;2463;49.948;8.472;2022-10-16T10:33:53;21.00;99.90
4896;DHT22;2463;49.948;8.472;2022-10-16T10:50:33;21.70;99.90
4896;DHT22;2463;49.948;8.472;2022-10-16T10:56:22;21.80;99.90
4896;DHT22;2463;49.948;8.472;2022-10-16T11:02:21;23.70;99.90
4896;DHT22;2463;49.948;8.472;2022-10-16T11:05:04;23.80;99.90
4896;DHT22;2463;49.948;8.472;2022-10-16T11:08:15;24.20;99.90
4896;DHT22;2463;49.948;8.472;2022-10-16T11:10:49;24.60;99.90
4896;DHT22;2463;49.948;8.472;2022-10-16T11:15:54;24.70;99.90
4896;DHT22;2463;49.948;8.472;2022-10-16T11:18:27;24.80;99.90
4896;DHT22;2463;49.948;8.472;2022-10-16T11:21:09;24.90;99.90
4896;DHT22;2463;49.948;8.472;2022-10-16T11:23:53;25.30;99.90
4896;DHT22;2463;49.948;8.472;2022-10-16T11:26:29;25.20;99.90
4896;DHT22;2463;49.948;8.472;2022-10-16T11:28:57;25.10;99.90
4896;DHT22;2463;49.948;8.472;2022-10-16T11:31:38;24.80;99.90
4896;DHT22;2463;49.948;8.472;2022-10-16T11:34:22;24.50;99.90
4896;DHT22;2463;49.948;8.472;2022-10-16T11:37:09;24.30;99.90
4896;DHT22;2463;49.948;8.472;2022-10-16T11:39:38;24.00;99.90
4896;DHT22;2463;49.948;8.472;2022-10-16T11:42:11;24.00;99.90
4896;DHT22;2463;49.948;8.472;2022-10-16T11:55:35;34.90;99.90
4896;DHT22;2463;49.948;8.472;2022-10-16T11:58:34;36.00;99.70
4896;DHT22;2463;49.948;8.472;2022-10-16T12:04:26;37.40;95.80
4896;DHT22;2463;49.948;8.472;2022-10-16T12:07:11;38.30;95.80
4896;DHT22;2463;49.948;8.472;2022-10-16T12:09:41;39.70;91.90
4896;DHT22;2463;49.948;8.472;2022-10-16T12:12:25;40.40;90.60
4896;DHT22;2463;49.948;8.472;2022-10-16T12:15:02;41.00;85.00
4896;DHT22;2463;49.948;8.472;2022-10-16T12:17:47;40.20;83.50
4896;DHT22;2463;49.948;8.472;2022-10-16T12:22:51;39.60;86.90
4896;DHT22;2463;49.948;8.472;2022-10-16T12:25:25;40.40;80.90
4896;DHT22;2463;49.948;8.472;2022-10-16T12:27:59;40.10;79.40
4896;DHT22;2463;49.948;8.472;2022-10-16T12:30:28;39.90;80.30
4896;DHT22;2463;49.948;8.472;2022-10-16T12:33:06;39.10;82.60
4896;DHT22;2463;49.948;8.472;2022-10-16T12:35:35;38.50;82.70
4896;DHT22;2463;49.948;8.472;2022-10-16T12:40:44;37.70;80.60
4896;DHT22;2463;49.948;8.472;2022-10-16T12:46:19;36.50;81.80
4896;DHT22;2463;49.948;8.472;2022-10-16T12:48:47;34.50;85.90
4896;DHT22;2463;49.948;8.472;2022-10-16T12:59:30;29.90;95.60
4896;DHT22;2463;49.948;8.472;2022-10-16T13:02:16;28.80;97.30
4896;DHT22;2463;49.948;8.472;2022-10-16T13:12:40;25.80;99.90
4896;DHT22;2463;49.948;8.472;2022-10-16T13:15:41;25.50;99.90
4896;DHT22;2463;49.948;8.472;2022-10-16T13:18:13;25.10;99.90
4896;DHT22;2463;49.948;8.472;2022-10-16T13:24:07;24.70;99.90
4896;DHT22;2463;49.948;8.472;2022-10-16T13:26:42;24.50;99.90
4896;DHT22;2463;49.948;8.472;2022-10-16T13:29:12;24.40;99.90
4896;DHT22;2463;49.948;8.472;2022-10-16T13:31:39;24.30;99.90
4896;DHT22;2463;49.948;8.472;2022-10-16T13:34:15;24.20;99.90
4896;DHT22;2463;49.948;8.472;2022-10-16T13:36:46;24.10;99.90
4896;DHT22;2463;49.948;8.472;2022-10-16T13:39:19;23.90;99.90
4896;DHT22;2463;49.948;8.472;2022-10-16T13:42:11;23.70;99.90
4896;DHT22;2463;49.948;8.472;2022-10-16T13:44:47;23.50;99.90
4896;DHT22;2463;49.948;8.472;2022-10-16T13:47:17;23.40;99.90
4896;DHT22;2463;49.948;8.472;2022-10-16T13:49:45;23.30;99.90
4896;DHT22;2463;49.948;8.472;2022-10-16T13:52:20;23.30;99.90
4896;DHT22;2463;49.948;8.472;2022-10-16T13:54:47;23.20;99.90
4896;DHT22;2463;49.948;8.472;2022-10-16T13:57:15;23.10;99.90
4896;DHT22;2463;49.948;8.472;2022-10-16T13:59:53;23.00;99.90
4896;DHT22;2463;49.948;8.472;2022-10-16T14:02:34;23.00;99.90
4896;DHT22;2463;49.948;8.472;2022-10-16T14:05:03;22.90;99.90
4896;DHT22;2463;49.948;8.472;2022-10-16T14:07:32;22.80;99.90
4896;DHT22;2463;49.948;8.472;2022-10-16T14:10:18;22.70;99.90
4896;DHT22;2463;49.948;8.472;2022-10-16T14:12:55;22.60;99.90
4896;DHT22;2463;49.948;8.472;2022-10-16T14:15:21;22.50;99.90
4896;DHT22;2463;49.948;8.472;2022-10-16T14:17:50;22.60;99.90
4896;DHT22;2463;49.948;8.472;2022-10-16T14:20:18;22.70;99.90
4896;DHT22;2463;49.948;8.472;2022-10-16T14:22:45;22.80;99.90
4896;DHT22;2463;49.948;8.472;2022-10-16T14:28:00;22.90;99.90
4896;DHT22;2463;49.948;8.472;2022-10-16T14:30:34;23.00;99.90
4896;DHT22;2463;49.948;8.472;2022-10-16T14:33:19;22.90;99.90
4896;DHT22;2463;49.948;8.472;2022-10-16T14:35:46;23.00;99.90
4896;DHT22;2463;49.948;8.472;2022-10-16T14:38:24;23.00;99.90
4896;DHT22;2463;49.948;8.472;2022-10-16T14:40:52;23.00;99.90
4896;DHT22;2463;49.948;8.472;2022-10-16T14:43:49;22.90;99.90
4896;DHT22;2463;49.948;8.472;2022-10-16T14:46:21;23.00;99.90
4896;DHT22;2463;49.948;8.472;2022-10-16T14:48:54;22.90;99.90
4896;DHT22;2463;49.948;8.472;2022-10-16T14:51:22;22.70;99.90
4896;DHT22;2463;49.948;8.472;2022-10-16T14:53:49;22.70;99.90
4896;DHT22;2463;49.948;8.472;2022-10-16T14:56:19;22.70;99.90
4896;DHT22;2463;49.948;8.472;2022-10-16T14:58:46;22.70;99.90
4896;DHT22;2463;49.948;8.472;2022-10-16T15:01:13;22.70;99.90
4896;DHT22;2463;49.948;8.472;2022-10-16T15:03:39;22.70;99.90
4896;DHT22;2463;49.948;8.472;2022-10-16T15:06:14;22.70;99.90
4896;DHT22;2463;49.948;8.472;2022-10-16T15:08:41;22.70;99.90
4896;DHT22;2463;49.948;8.472;2022-10-16T15:11:26;22.70;99.90
4896;DHT22;2463;49.948;8.472;2022-10-16T15:13:53;22.70;99.90
4896;DHT22;2463;49.948;8.472;2022-10-16T15:16:19;22.90;99.90
4896;DHT22;2463;49.948;8.472;2022-10-16T15:18:46;23.50;99.90
4896;DHT22;2463;49.948;8.472;2022-10-16T15:21:29;24.10;99.90
4896;DHT22;2463;49.948;8.472;2022-10-16T15:23:57;24.30;99.90
4896;DHT22;2463;49.948;8.472;2022-10-16T15:26:26;24.30;99.90
4896;DHT22;2463;49.948;8.472;2022-10-16T15:28:53;24.10;99.90
4896;DHT22;2463;49.948;8.472;2022-10-16T15:31:20;23.90;99.90
4896;DHT22;2463;49.948;8.472;2022-10-16T15:33:52;23.70;99.90
4896;DHT22;2463;49.948;8.472;2022-10-16T15:36:29;23.50;99.90
4896;DHT22;2463;49.948;8.472;2022-10-16T15:38:56;23.30;99.90
4896;DHT22;2463;49.948;8.472;2022-10-16T15:41:23;23.10;99.90
4896;DHT22;2463;49.948;8.472;2022-10-16T15:43:50;23.00;99.90
4896;DHT22;2463;49.948;8.472;2022-10-16T15:46:19;22.80;99.90
4896;DHT22;2463;49.948;8.472;2022-10-16T15:48:47;22.70;99.90
4896;DHT22;2463;49.948;8.472;2022-10-16T15:51:14;22.90;99.90
4896;DHT22;2463;49.948;8.472;2022-10-16T15:53:41;22.40;99.90
4896;DHT22;2463;49.948;8.472;2022-10-16T15:56:09;22.30;99.90
4896;DHT22;2463;49.948;8.472;2022-10-16T15:58:37;22.20;99.90
4896;DHT22;2463;49.948;8.472;2022-10-16T16:01:04;22.10;99.90
4896;DHT22;2463;49.948;8.472;2022-10-16T16:03:32;22.00;99.90
4896;DHT22;2463;49.948;8.472;2022-10-16T16:06:04;21.90;99.90
4896;DHT22;2463;49.948;8.472;2022-10-16T16:08:32;21.80;99.90
4896;DHT22;2463;49.948;8.472;2022-10-16T16:11:06;21.70;99.90
4896;DHT22;2463;49.948;8.472;2022-10-16T16:13:33;21.60;99.90
4896;DHT22;2463;49.948;8.472;2022-10-16T16:16:00;21.50;99.90
4896;DHT22;2463;49.948;8.472;2022-10-16T16:18:26;21.40;99.90
4896;DHT22;2463;49.948;8.472;2022-10-16T16:20:55;21.30;99.90
4896;DHT22;2463;49.948;8.472;2022-10-16T16:23:22;21.30;99.90
4896;DHT22;2463;49.948;8.472;2022-10-16T16:26:09;21.10;99.90
4896;DHT22;2463;49.948;8.472;2022-10-16T16:28:38;21.10;99.90
4896;DHT22;2463;49.948;8.472;2022-10-16T16:31:05;21.00;99.90
4896;DHT22;2463;49.948;8.472;2022-10-16T16:33:33;20.90;99.90
4896;DHT22;2463;49.948;8.472;2022-10-16T16:36:02;20.80;99.90
4896;DHT22;2463;49.948;8.472;2022-10-16T16:38:29;20.80;99.90
4896;DHT22;2463;49.948;8.472;2022-10-16T16:40:56;20.70;99.90
4896;DHT22;2463;49.948;8.472;2022-10-16T16:43:25;20.60;99.90
4896;DHT22;2463;49.948;8.472;2022-10-16T16:45:53;20.50;99.90
4896;DHT22;2463;49.948;8.472;2022-10-16T16:48:21;20.50;99.90
4896;DHT22;2463;49.948;8.472;2022-10-16T16:50:48;20.40;99.90
4896;DHT22;2463;49.948;8.472;2022-10-16T16:53:14;20.40;99.90
4896;DHT22;2463;49.948;8.472;2022-10-16T16:55:42;20.40;99.90
4896;DHT22;2463;49.948;8.472;2022-10-16T16:58:08;20.70;99.90
4896;DHT22;2463;49.948;8.472;2022-10-16T17:00:35;20.30;99.90
4896;DHT22;2463;49.948;8.472;2022-10-16T17:03:02;20.30;99.90
4896;DHT22;2463;49.948;8.472;2022-10-16T17:05:29;20.20;99.90
4896;DHT22;2463;49.948;8.472;2022-10-16T17:07:55;20.20;99.90
4896;DHT22;2463;49.948;8.472;2022-10-16T17:10:22;20.10;99.90
4896;DHT22;2463;49.948;8.472;2022-10-16T17:12:49;20.10;99.90
4896;DHT22;2463;49.948;8.472;2022-10-16T17:15:15;20.10;99.90
4896;DHT22;2463;49.948;8.472;2022-10-16T17:17:42;20.00;99.90
4896;DHT22;2463;49.948;8.472;2022-10-16T17:20:09;20.00;99.90
4896;DHT22;2463;49.948;8.472;2022-10-16T17:22:36;19.90;99.90
4896;DHT22;2463;49.948;8.472;2022-10-16T17:25:03;19.90;99.90
4896;DHT22;2463;49.948;8.472;2022-10-16T17:27:32;19.90;99.90
4896;DHT22;2463;49.948;8.472;2022-10-16T17:29:59;19.80;99.90
4896;DHT22;2463;49.948;8.472;2022-10-16T17:32:26;19.80;99.90
4896;DHT22;2463;49.948;8.472;2022-10-16T17:34:53;19.70;99.90
4896;DHT22;2463;49.948;8.472;2022-10-16T17:37:20;19.70;99.90
4896;DHT22;2463;49.948;8.472;2022-10-16T17:39:49;19.60;99.90
4896;DHT22;2463;49.948;8.472;2022-10-16T17:42:17;19.50;99.90
4896;DHT22;2463;49.948;8.472;2022-10-16T17:44:44;19.50;99.90
4896;DHT22;2463;49.948;8.472;2022-10-16T17:47:11;19.40;99.90
4896;DHT22;2463;49.948;8.472;2022-10-16T17:49:38;19.30;99.90
4896;DHT22;2463;49.948;8.472;2022-10-16T17:52:04;19.20;99.90
4896;DHT22;2463;49.948;8.472;2022-10-16T17:54:31;19.20;99.90
4896;DHT22;2463;49.948;8.472;2022-10-16T17:56:58;19.20;99.90
4896;DHT22;2463;49.948;8.472;2022-10-16T17:59:24;19.10;99.90
4896;DHT22;2463;49.948;8.472;2022-10-16T18:01:51;19.00;99.90
4896;DHT22;2463;49.948;8.472;2022-10-16T18:04:18;19.00;99.90